sensor_id;sensor_type;location;lat;lon;timestamp;P1;durP1;ratioP1;P2;durP2;ratioP2
23898;SDS011;20544;50.018;20.010;2023-10-19T00:01:09;50.50;;;33.93;;
23898;SDS011;20544;50.018;20.010;2023-10-19T00:04:28;42.68;;;31.33;;
23898;SDS011;20544;50.018;20.010;2023-10-19T00:07:47;39.95;;;32.80;;
23898;SDS011;20544;50.018;20.010;2023-10-19T00:11:05;49.80;;;33.70;;
23898;SDS011;20544;50.018;20.010;2023-10-19T00:14:26;43.55;;;32.33;;
23898;SDS011;20544;50.018;20.010;2023-10-19T00:17:44;40.38;;;31.93;;
23898;SDS011;20544;50.018;20.010;2023-10-19T00:21:01;43.58;;;31.58;;
23898;SDS011;20544;50.018;20.010;2023-10-19T00:24:21;47.43;;;31.03;;
23898;SDS011;20544;50.018;20.010;2023-10-19T00:27:39;52.30;;;31.68;;
23898;SDS011;20544;50.018;20.010;2023-10-19T00:30:56;50.70;;;29.53;;
23898;SDS011;20544;50.018;20.010;2023-10-19T00:34:15;49.18;;;30.43;;
23898;SDS011;20544;50.018;20.010;2023-10-19T00:37:32;41.95;;;28.55;;
23898;SDS011;20544;50.018;20.010;2023-10-19T00:40:52;40.20;;;29.93;;
23898;SDS011;20544;50.018;20.010;2023-10-19T00:44:13;43.23;;;32.63;;
23898;SDS011;20544;50.018;20.010;2023-10-19T00:47:36;47.10;;;29.50;;
23898;SDS011;20544;50.018;20.010;2023-10-19T00:50:54;43.60;;;31.95;;
23898;SDS011;20544;50.018;20.010;2023-10-19T00:54:21;42.25;;;31.65;;
23898;SDS011;20544;50.018;20.010;2023-10-19T00:57:45;39.75;;;29.93;;
23898;SDS011;20544;50.018;20.010;2023-10-19T01:01:02;52.48;;;30.80;;
23898;SDS011;20544;50.018;20.010;2023-10-19T01:04:19;40.40;;;30.60;;
23898;SDS011;20544;50.018;20.010;2023-10-19T01:07:39;45.08;;;32.93;;
23898;SDS011;20544;50.018;20.010;2023-10-19T01:10:58;46.18;;;31.20;;
23898;SDS011;20544;50.018;20.010;2023-10-19T01:14:20;51.50;;;31.93;;
23898;SDS011;20544;50.018;20.010;2023-10-19T01:17:40;53.88;;;38.08;;
23898;SDS011;20544;50.018;20.010;2023-10-19T01:21:00;54.85;;;38.03;;
23898;SDS011;20544;50.018;20.010;2023-10-19T01:24:19;51.20;;;35.23;;
23898;SDS011;20544;50.018;20.010;2023-10-19T01:27:40;73.10;;;33.28;;
23898;SDS011;20544;50.018;20.010;2023-10-19T01:30:59;48.30;;;31.70;;
23898;SDS011;20544;50.018;20.010;2023-10-19T01:34:20;51.25;;;31.60;;
23898;SDS011;20544;50.018;20.010;2023-10-19T01:37:37;45.45;;;29.68;;
23898;SDS011;20544;50.018;20.010;2023-10-19T01:40:54;48.65;;;29.65;;
23898;SDS011;20544;50.018;20.010;2023-10-19T01:44:13;43.00;;;30.58;;
23898;SDS011;20544;50.018;20.010;2023-10-19T01:47:32;50.55;;;30.25;;
23898;SDS011;20544;50.018;20.010;2023-10-19T01:50:50;44.55;;;28.98;;
23898;SDS011;20544;50.018;20.010;2023-10-19T01:54:07;51.45;;;29.58;;
23898;SDS011;20544;50.018;20.010;2023-10-19T01:57:25;40.63;;;29.90;;
23898;SDS011;20544;50.018;20.010;2023-10-19T02:00:42;46.50;;;30.23;;
23898;SDS011;20544;50.018;20.010;2023-10-19T02:04:03;48.90;;;29.18;;
23898;SDS011;20544;50.018;20.010;2023-10-19T02:07:20;40.10;;;30.80;;
23898;SDS011;20544;50.018;20.010;2023-10-19T02:10:39;45.93;;;29.60;;
23898;SDS011;20544;50.018;20.010;2023-10-19T02:14:00;48.58;;;30.18;;
23898;SDS011;20544;50.018;20.010;2023-10-19T02:20:34;35.65;;;27.90;;
23898;SDS011;20544;50.018;20.010;2023-10-19T02:23:54;52.40;;;29.73;;
23898;SDS011;20544;50.018;20.010;2023-10-19T02:27:12;54.35;;;28.58;;
23898;SDS011;20544;50.018;20.010;2023-10-19T02:33:48;42.80;;;29.33;;
23898;SDS011;20544;50.018;20.010;2023-10-19T02:37:11;43.43;;;28.80;;
23898;SDS011;20544;50.018;20.010;2023-10-19T02:40:28;51.85;;;29.93;;
23898;SDS011;20544;50.018;20.010;2023-10-19T02:43:46;43.78;;;29.10;;
23898;SDS011;20544;50.018;20.010;2023-10-19T02:47:04;39.40;;;31.40;;
23898;SDS011;20544;50.018;20.010;2023-10-19T02:50:21;54.63;;;30.45;;
23898;SDS011;20544;50.018;20.010;2023-10-19T02:53:39;38.65;;;29.38;;
23898;SDS011;20544;50.018;20.010;2023-10-19T02:56:56;41.28;;;31.43;;
23898;SDS011;20544;50.018;20.010;2023-10-19T03:00:15;37.83;;;29.23;;
23898;SDS011;20544;50.018;20.010;2023-10-19T03:03:36;41.45;;;28.40;;
23898;SDS011;20544;50.018;20.010;2023-10-19T03:06:58;49.05;;;27.88;;
23898;SDS011;20544;50.018;20.010;2023-10-19T03:10:15;39.70;;;27.78;;
23898;SDS011;20544;50.018;20.010;2023-10-19T03:13:38;50.73;;;29.20;;
23898;SDS011;20544;50.018;20.010;2023-10-19T03:16:57;36.80;;;27.95;;
23898;SDS011;20544;50.018;20.010;2023-10-19T03:20:16;36.28;;;28.10;;
23898;SDS011;20544;50.018;20.010;2023-10-19T03:23:35;47.33;;;29.25;;
23898;SDS011;20544;50.018;20.010;2023-10-19T03:26:52;41.95;;;29.03;;
23898;SDS011;20544;50.018;20.010;2023-10-19T03:30:17;41.45;;;26.95;;
23898;SDS011;20544;50.018;20.010;2023-10-19T03:33:35;33.68;;;28.03;;
23898;SDS011;20544;50.018;20.010;2023-10-19T03:36:52;41.13;;;27.00;;
23898;SDS011;20544;50.018;20.010;2023-10-19T03:43:30;40.03;;;25.93;;
23898;SDS011;20544;50.018;20.010;2023-10-19T03:50:14;42.05;;;26.73;;
23898;SDS011;20544;50.018;20.010;2023-10-19T03:53:32;33.48;;;25.50;;
23898;SDS011;20544;50.018;20.010;2023-10-19T03:56:52;34.65;;;25.10;;
23898;SDS011;20544;50.018;20.010;2023-10-19T04:00:12;36.50;;;26.15;;
23898;SDS011;20544;50.018;20.010;2023-10-19T04:03:32;31.15;;;24.75;;
23898;SDS011;20544;50.018;20.010;2023-10-19T04:06:51;34.38;;;24.50;;
23898;SDS011;20544;50.018;20.010;2023-10-19T04:10:14;32.30;;;24.90;;
23898;SDS011;20544;50.018;20.010;2023-10-19T04:13:43;43.25;;;27.93;;
23898;SDS011;20544;50.018;20.010;2023-10-19T04:17:05;37.70;;;28.70;;
23898;SDS011;20544;50.018;20.010;2023-10-19T04:23:48;37.63;;;26.23;;
23898;SDS011;20544;50.018;20.010;2023-10-19T04:27:06;34.07;;;27.90;;
23898;SDS011;20544;50.018;20.010;2023-10-19T04:30:23;33.23;;;25.73;;
23898;SDS011;20544;50.018;20.010;2023-10-19T04:33:40;36.60;;;26.90;;
23898;SDS011;20544;50.018;20.010;2023-10-19T04:36:57;32.78;;;26.45;;
23898;SDS011;20544;50.018;20.010;2023-10-19T04:40:15;35.40;;;26.30;;
23898;SDS011;20544;50.018;20.010;2023-10-19T04:43:36;35.33;;;27.90;;
23898;SDS011;20544;50.018;20.010;2023-10-19T04:46:55;36.98;;;25.15;;
23898;SDS011;20544;50.018;20.010;2023-10-19T04:50:20;41.78;;;26.08;;
23898;SDS011;20544;50.018;20.010;2023-10-19T04:53:37;41.90;;;27.95;;
23898;SDS011;20544;50.018;20.010;2023-10-19T04:56:56;32.07;;;25.90;;
23898;SDS011;20544;50.018;20.010;2023-10-19T05:00:14;33.48;;;26.58;;
23898;SDS011;20544;50.018;20.010;2023-10-19T05:03:34;31.90;;;25.78;;
23898;SDS011;20544;50.018;20.010;2023-10-19T05:06:51;34.05;;;25.88;;
23898;SDS011;20544;50.018;20.010;2023-10-19T05:10:11;31.73;;;25.25;;
23898;SDS011;20544;50.018;20.010;2023-10-19T05:13:29;32.78;;;25.15;;
23898;SDS011;20544;50.018;20.010;2023-10-19T05:16:47;35.73;;;25.75;;
23898;SDS011;20544;50.018;20.010;2023-10-19T05:20:06;37.38;;;25.80;;
23898;SDS011;20544;50.018;20.010;2023-10-19T05:23:26;38.40;;;26.83;;
23898;SDS011;20544;50.018;20.010;2023-10-19T05:26:43;29.63;;;23.50;;
23898;SDS011;20544;50.018;20.010;2023-10-19T05:30:01;28.05;;;21.93;;
23898;SDS011;20544;50.018;20.010;2023-10-19T05:33:21;31.75;;;22.70;;
23898;SDS011;20544;50.018;20.010;2023-10-19T05:36:43;31.58;;;22.55;;
23898;SDS011;20544;50.018;20.010;2023-10-19T05:40:01;26.93;;;21.25;;
23898;SDS011;20544;50.018;20.010;2023-10-19T05:43:26;28.75;;;21.55;;
23898;SDS011;20544;50.018;20.010;2023-10-19T05:46:44;28.25;;;21.08;;
23898;SDS011;20544;50.018;20.010;2023-10-19T05:50:02;26.53;;;20.98;;
23898;SDS011;20544;50.018;20.010;2023-10-19T05:53:22;24.23;;;20.95;;
23898;SDS011;20544;50.018;20.010;2023-10-19T05:56:38;24.60;;;21.53;;
23898;SDS011;20544;50.018;20.010;2023-10-19T06:00:02;26.48;;;23.15;;
23898;SDS011;20544;50.018;20.010;2023-10-19T06:03:25;24.53;;;21.23;;
23898;SDS011;20544;50.018;20.010;2023-10-19T06:06:42;24.00;;;21.50;;
23898;SDS011;20544;50.018;20.010;2023-10-19T06:09:59;25.40;;;22.15;;
23898;SDS011;20544;50.018;20.010;2023-10-19T06:13:22;28.90;;;21.43;;
23898;SDS011;20544;50.018;20.010;2023-10-19T06:16:39;26.95;;;22.03;;
23898;SDS011;20544;50.018;20.010;2023-10-19T06:19:56;26.13;;;23.28;;
23898;SDS011;20544;50.018;20.010;2023-10-19T06:23:14;28.53;;;23.03;;
23898;SDS011;20544;50.018;20.010;2023-10-19T06:26:31;33.25;;;22.73;;
23898;SDS011;20544;50.018;20.010;2023-10-19T06:29:48;33.78;;;22.55;;
23898;SDS011;20544;50.018;20.010;2023-10-19T06:33:05;31.45;;;23.30;;
23898;SDS011;20544;50.018;20.010;2023-10-19T06:36:23;27.43;;;22.88;;
23898;SDS011;20544;50.018;20.010;2023-10-19T06:42:58;36.75;;;24.70;;
23898;SDS011;20544;50.018;20.010;2023-10-19T06:46:15;28.83;;;24.85;;
23898;SDS011;20544;50.018;20.010;2023-10-19T06:49:34;29.35;;;24.83;;
23898;SDS011;20544;50.018;20.010;2023-10-19T06:52:52;32.53;;;24.88;;
23898;SDS011;20544;50.018;20.010;2023-10-19T06:56:16;34.30;;;24.85;;
23898;SDS011;20544;50.018;20.010;2023-10-19T06:59:38;33.05;;;25.38;;
23898;SDS011;20544;50.018;20.010;2023-10-19T07:02:58;31.70;;;25.45;;
23898;SDS011;20544;50.018;20.010;2023-10-19T07:06:17;35.20;;;24.85;;
23898;SDS011;20544;50.018;20.010;2023-10-19T07:09:38;32.40;;;24.03;;
23898;SDS011;20544;50.018;20.010;2023-10-19T07:12:55;27.55;;;22.45;;
23898;SDS011;20544;50.018;20.010;2023-10-19T07:16:12;31.73;;;22.20;;
23898;SDS011;20544;50.018;20.010;2023-10-19T07:19:30;24.58;;;20.80;;
23898;SDS011;20544;50.018;20.010;2023-10-19T07:22:47;25.23;;;19.98;;
23898;SDS011;20544;50.018;20.010;2023-10-19T07:26:04;27.83;;;16.25;;
23898;SDS011;20544;50.018;20.010;2023-10-19T07:29:22;18.85;;;16.05;;
23898;SDS011;20544;50.018;20.010;2023-10-19T07:32:42;17.38;;;15.45;;
23898;SDS011;20544;50.018;20.010;2023-10-19T07:36:01;22.80;;;16.60;;
23898;SDS011;20544;50.018;20.010;2023-10-19T07:39:24;19.05;;;16.30;;
23898;SDS011;20544;50.018;20.010;2023-10-19T07:42:42;23.07;;;16.53;;
23898;SDS011;20544;50.018;20.010;2023-10-19T07:46:01;19.10;;;16.33;;
23898;SDS011;20544;50.018;20.010;2023-10-19T07:49:21;19.88;;;15.90;;
23898;SDS011;20544;50.018;20.010;2023-10-19T07:52:39;17.80;;;15.93;;
23898;SDS011;20544;50.018;20.010;2023-10-19T07:55:56;21.90;;;16.65;;
23898;SDS011;20544;50.018;20.010;2023-10-19T07:59:14;19.03;;;16.58;;
23898;SDS011;20544;50.018;20.010;2023-10-19T08:02:31;19.55;;;16.33;;
23898;SDS011;20544;50.018;20.010;2023-10-19T08:05:49;26.03;;;16.35;;
23898;SDS011;20544;50.018;20.010;2023-10-19T08:09:06;22.03;;;15.45;;
23898;SDS011;20544;50.018;20.010;2023-10-19T08:12:25;20.68;;;17.33;;
23898;SDS011;20544;50.018;20.010;2023-10-19T08:15:43;20.43;;;16.60;;
23898;SDS011;20544;50.018;20.010;2023-10-19T08:19:00;20.75;;;15.13;;
23898;SDS011;20544;50.018;20.010;2023-10-19T08:22:17;24.03;;;15.28;;
23898;SDS011;20544;50.018;20.010;2023-10-19T08:25:34;20.63;;;15.65;;
23898;SDS011;20544;50.018;20.010;2023-10-19T08:28:53;21.65;;;16.10;;
23898;SDS011;20544;50.018;20.010;2023-10-19T08:32:12;24.48;;;14.78;;
23898;SDS011;20544;50.018;20.010;2023-10-19T08:35:29;25.13;;;16.58;;
23898;SDS011;20544;50.018;20.010;2023-10-19T08:38:48;69.38;;;49.38;;
23898;SDS011;20544;50.018;20.010;2023-10-19T08:42:05;23.23;;;17.00;;
23898;SDS011;20544;50.018;20.010;2023-10-19T08:45:22;19.68;;;15.13;;
23898;SDS011;20544;50.018;20.010;2023-10-19T08:51:56;18.75;;;14.40;;
23898;SDS011;20544;50.018;20.010;2023-10-19T08:55:17;16.13;;;13.08;;
23898;SDS011;20544;50.018;20.010;2023-10-19T08:58:36;24.90;;;14.53;;
23898;SDS011;20544;50.018;20.010;2023-10-19T09:02:00;22.65;;;15.28;;
23898;SDS011;20544;50.018;20.010;2023-10-19T09:05:19;22.13;;;15.40;;
23898;SDS011;20544;50.018;20.010;2023-10-19T09:08:37;17.40;;;13.60;;
23898;SDS011;20544;50.018;20.010;2023-10-19T09:11:59;27.80;;;21.20;;
23898;SDS011;20544;50.018;20.010;2023-10-19T09:15:22;41.45;;;32.53;;
23898;SDS011;20544;50.018;20.010;2023-10-19T09:18:40;23.98;;;15.98;;
23898;SDS011;20544;50.018;20.010;2023-10-19T09:21:58;22.47;;;14.60;;
23898;SDS011;20544;50.018;20.010;2023-10-19T09:25:17;20.43;;;14.68;;
23898;SDS011;20544;50.018;20.010;2023-10-19T09:28:35;18.38;;;13.38;;
23898;SDS011;20544;50.018;20.010;2023-10-19T09:31:54;18.70;;;14.03;;
23898;SDS011;20544;50.018;20.010;2023-10-19T09:35:14;15.30;;;12.85;;
23898;SDS011;20544;50.018;20.010;2023-10-19T09:38:33;21.13;;;14.00;;
23898;SDS011;20544;50.018;20.010;2023-10-19T09:41:50;15.58;;;12.33;;
23898;SDS011;20544;50.018;20.010;2023-10-19T09:45:10;19.70;;;12.20;;
23898;SDS011;20544;50.018;20.010;2023-10-19T09:48:31;16.20;;;12.33;;
23898;SDS011;20544;50.018;20.010;2023-10-19T09:51:55;30.93;;;19.78;;
23898;SDS011;20544;50.018;20.010;2023-10-19T09:55:15;18.08;;;14.45;;
23898;SDS011;20544;50.018;20.010;2023-10-19T09:58:39;17.18;;;13.48;;
23898;SDS011;20544;50.018;20.010;2023-10-19T10:02:06;17.85;;;13.25;;
23898;SDS011;20544;50.018;20.010;2023-10-19T10:09:07;18.58;;;12.70;;
23898;SDS011;20544;50.018;20.010;2023-10-19T10:12:26;14.23;;;12.68;;
23898;SDS011;20544;50.018;20.010;2023-10-19T10:15:43;19.05;;;13.33;;
23898;SDS011;20544;50.018;20.010;2023-10-19T10:19:01;17.95;;;13.85;;
23898;SDS011;20544;50.018;20.010;2023-10-19T10:22:37;18.13;;;12.20;;
23898;SDS011;20544;50.018;20.010;2023-10-19T10:25:55;19.70;;;13.78;;
23898;SDS011;20544;50.018;20.010;2023-10-19T10:29:21;21.40;;;13.78;;
23898;SDS011;20544;50.018;20.010;2023-10-19T10:32:45;16.58;;;13.20;;
23898;SDS011;20544;50.018;20.010;2023-10-19T10:36:06;16.70;;;13.20;;
23898;SDS011;20544;50.018;20.010;2023-10-19T10:39:24;23.13;;;15.05;;
23898;SDS011;20544;50.018;20.010;2023-10-19T10:42:43;17.80;;;14.53;;
23898;SDS011;20544;50.018;20.010;2023-10-19T10:46:04;21.53;;;14.58;;
23898;SDS011;20544;50.018;20.010;2023-10-19T10:49:23;19.30;;;13.95;;
23898;SDS011;20544;50.018;20.010;2023-10-19T10:52:40;14.58;;;13.10;;
23898;SDS011;20544;50.018;20.010;2023-10-19T10:56:01;15.70;;;14.00;;
23898;SDS011;20544;50.018;20.010;2023-10-19T10:59:19;15.55;;;13.60;;
23898;SDS011;20544;50.018;20.010;2023-10-19T11:02:36;22.83;;;14.43;;
23898;SDS011;20544;50.018;20.010;2023-10-19T11:05:54;24.58;;;14.28;;
23898;SDS011;20544;50.018;20.010;2023-10-19T11:09:17;15.80;;;13.90;;
23898;SDS011;20544;50.018;20.010;2023-10-19T11:12:36;21.63;;;14.75;;
23898;SDS011;20544;50.018;20.010;2023-10-19T11:15:53;23.02;;;15.13;;
23898;SDS011;20544;50.018;20.010;2023-10-19T11:19:18;16.65;;;14.95;;
23898;SDS011;20544;50.018;20.010;2023-10-19T11:22:54;17.15;;;13.90;;
23898;SDS011;20544;50.018;20.010;2023-10-19T11:26:15;16.70;;;14.95;;
23898;SDS011;20544;50.018;20.010;2023-10-19T11:29:35;17.60;;;14.90;;
23898;SDS011;20544;50.018;20.010;2023-10-19T11:33:09;21.48;;;15.03;;
23898;SDS011;20544;50.018;20.010;2023-10-19T11:36:30;22.13;;;15.38;;
23898;SDS011;20544;50.018;20.010;2023-10-19T11:39:48;18.30;;;14.00;;
23898;SDS011;20544;50.018;20.010;2023-10-19T11:43:05;24.33;;;16.08;;
23898;SDS011;20544;50.018;20.010;2023-10-19T11:46:22;25.03;;;16.68;;
23898;SDS011;20544;50.018;20.010;2023-10-19T11:49:47;22.65;;;17.35;;
23898;SDS011;20544;50.018;20.010;2023-10-19T11:53:04;22.25;;;15.78;;
23898;SDS011;20544;50.018;20.010;2023-10-19T11:56:21;21.40;;;15.73;;
23898;SDS011;20544;50.018;20.010;2023-10-19T11:59:38;25.45;;;14.70;;
23898;SDS011;20544;50.018;20.010;2023-10-19T12:02:56;20.07;;;16.10;;
23898;SDS011;20544;50.018;20.010;2023-10-19T12:06:13;19.65;;;16.30;;
23898;SDS011;20544;50.018;20.010;2023-10-19T12:09:31;22.78;;;15.78;;
23898;SDS011;20544;50.018;20.010;2023-10-19T12:12:49;22.03;;;16.48;;
23898;SDS011;20544;50.018;20.010;2023-10-19T12:19:23;23.83;;;16.75;;
23898;SDS011;20544;50.018;20.010;2023-10-19T12:22:42;26.78;;;17.73;;
23898;SDS011;20544;50.018;20.010;2023-10-19T12:29:18;24.95;;;16.30;;
23898;SDS011;20544;50.018;20.010;2023-10-19T12:32:35;22.15;;;15.93;;
23898;SDS011;20544;50.018;20.010;2023-10-19T12:35:52;18.58;;;16.53;;
23898;SDS011;20544;50.018;20.010;2023-10-19T12:39:11;18.85;;;16.10;;
23898;SDS011;20544;50.018;20.010;2023-10-19T12:42:39;20.18;;;15.00;;
23898;SDS011;20544;50.018;20.010;2023-10-19T12:45:58;23.08;;;16.73;;
23898;SDS011;20544;50.018;20.010;2023-10-19T12:49:16;16.68;;;13.53;;
23898;SDS011;20544;50.018;20.010;2023-10-19T12:52:35;17.13;;;15.10;;
23898;SDS011;20544;50.018;20.010;2023-10-19T12:55:54;19.43;;;15.23;;
23898;SDS011;20544;50.018;20.010;2023-10-19T12:59:23;19.25;;;14.68;;
23898;SDS011;20544;50.018;20.010;2023-10-19T13:02:40;21.63;;;14.70;;
23898;SDS011;20544;50.018;20.010;2023-10-19T13:05:58;17.23;;;14.53;;
23898;SDS011;20544;50.018;20.010;2023-10-19T13:09:29;17.33;;;14.93;;
23898;SDS011;20544;50.018;20.010;2023-10-19T13:12:46;16.05;;;14.35;;
23898;SDS011;20544;50.018;20.010;2023-10-19T13:16:04;20.08;;;13.83;;
23898;SDS011;20544;50.018;20.010;2023-10-19T13:19:21;19.00;;;16.28;;
23898;SDS011;20544;50.018;20.010;2023-10-19T13:22:39;24.13;;;18.75;;
23898;SDS011;20544;50.018;20.010;2023-10-19T13:25:56;25.83;;;16.53;;
23898;SDS011;20544;50.018;20.010;2023-10-19T13:29:25;24.30;;;17.68;;
23898;SDS011;20544;50.018;20.010;2023-10-19T13:32:43;22.80;;;19.40;;
23898;SDS011;20544;50.018;20.010;2023-10-19T13:36:02;20.05;;;17.68;;
23898;SDS011;20544;50.018;20.010;2023-10-19T13:39:22;28.23;;;21.88;;
23898;SDS011;20544;50.018;20.010;2023-10-19T13:42:43;27.23;;;19.98;;
23898;SDS011;20544;50.018;20.010;2023-10-19T13:46:01;21.65;;;19.30;;
23898;SDS011;20544;50.018;20.010;2023-10-19T13:49:18;23.15;;;19.95;;
23898;SDS011;20544;50.018;20.010;2023-10-19T13:52:38;25.73;;;19.13;;
23898;SDS011;20544;50.018;20.010;2023-10-19T13:56:14;70.08;;;49.93;;
23898;SDS011;20544;50.018;20.010;2023-10-19T13:59:36;40.25;;;29.98;;
23898;SDS011;20544;50.018;20.010;2023-10-19T14:03:04;29.18;;;24.13;;
23898;SDS011;20544;50.018;20.010;2023-10-19T14:06:24;28.35;;;23.18;;
23898;SDS011;20544;50.018;20.010;2023-10-19T14:09:42;24.38;;;21.73;;
23898;SDS011;20544;50.018;20.010;2023-10-19T14:13:00;26.70;;;20.80;;
23898;SDS011;20544;50.018;20.010;2023-10-19T14:16:20;24.10;;;20.95;;
23898;SDS011;20544;50.018;20.010;2023-10-19T14:19:38;23.33;;;19.85;;
23898;SDS011;20544;50.018;20.010;2023-10-19T14:22:55;24.70;;;20.45;;
23898;SDS011;20544;50.018;20.010;2023-10-19T14:26:13;30.10;;;21.85;;
23898;SDS011;20544;50.018;20.010;2023-10-19T14:29:31;26.68;;;20.15;;
23898;SDS011;20544;50.018;20.010;2023-10-19T14:32:51;29.53;;;21.35;;
23898;SDS011;20544;50.018;20.010;2023-10-19T14:36:17;21.75;;;19.18;;
23898;SDS011;20544;50.018;20.010;2023-10-19T14:39:34;31.15;;;20.65;;
23898;SDS011;20544;50.018;20.010;2023-10-19T14:42:58;24.25;;;21.08;;
23898;SDS011;20544;50.018;20.010;2023-10-19T14:46:16;32.55;;;22.23;;
23898;SDS011;20544;50.018;20.010;2023-10-19T14:49:37;23.55;;;20.95;;
23898;SDS011;20544;50.018;20.010;2023-10-19T14:52:54;22.20;;;19.90;;
23898;SDS011;20544;50.018;20.010;2023-10-19T14:56:12;31.60;;;20.03;;
23898;SDS011;20544;50.018;20.010;2023-10-19T14:59:29;27.50;;;19.10;;
23898;SDS011;20544;50.018;20.010;2023-10-19T15:02:47;27.50;;;19.75;;
23898;SDS011;20544;50.018;20.010;2023-10-19T15:06:08;28.23;;;20.98;;
23898;SDS011;20544;50.018;20.010;2023-10-19T15:09:26;25.93;;;21.25;;
23898;SDS011;20544;50.018;20.010;2023-10-19T15:12:44;31.68;;;18.30;;
23898;SDS011;20544;50.018;20.010;2023-10-19T15:16:10;28.00;;;20.60;;
23898;SDS011;20544;50.018;20.010;2023-10-19T15:19:28;25.10;;;21.95;;
23898;SDS011;20544;50.018;20.010;2023-10-19T15:22:46;22.13;;;19.93;;
23898;SDS011;20544;50.018;20.010;2023-10-19T15:26:04;28.43;;;22.28;;
23898;SDS011;20544;50.018;20.010;2023-10-19T15:29:21;43.65;;;35.25;;
23898;SDS011;20544;50.018;20.010;2023-10-19T15:32:41;32.10;;;26.48;;
23898;SDS011;20544;50.018;20.010;2023-10-19T15:36:00;32.13;;;24.63;;
23898;SDS011;20544;50.018;20.010;2023-10-19T15:39:19;33.45;;;22.48;;
23898;SDS011;20544;50.018;20.010;2023-10-19T15:42:37;30.03;;;22.83;;
23898;SDS011;20544;50.018;20.010;2023-10-19T15:45:58;32.88;;;20.98;;
23898;SDS011;20544;50.018;20.010;2023-10-19T15:49:17;24.88;;;20.55;;
23898;SDS011;20544;50.018;20.010;2023-10-19T15:52:34;25.43;;;21.93;;
23898;SDS011;20544;50.018;20.010;2023-10-19T15:55:52;25.85;;;21.00;;
23898;SDS011;20544;50.018;20.010;2023-10-19T15:59:09;23.70;;;21.05;;
23898;SDS011;20544;50.018;20.010;2023-10-19T16:02:27;23.53;;;21.10;;
23898;SDS011;20544;50.018;20.010;2023-10-19T16:05:45;23.40;;;20.87;;
23898;SDS011;20544;50.018;20.010;2023-10-19T16:09:02;26.33;;;21.73;;
23898;SDS011;20544;50.018;20.010;2023-10-19T16:12:20;25.00;;;21.33;;
23898;SDS011;20544;50.018;20.010;2023-10-19T16:15:38;26.10;;;21.00;;
23898;SDS011;20544;50.018;20.010;2023-10-19T16:18:55;31.38;;;21.43;;
23898;SDS011;20544;50.018;20.010;2023-10-19T16:22:13;28.25;;;21.13;;
23898;SDS011;20544;50.018;20.010;2023-10-19T16:25:32;29.15;;;21.45;;
23898;SDS011;20544;50.018;20.010;2023-10-19T16:28:49;28.35;;;22.10;;
23898;SDS011;20544;50.018;20.010;2023-10-19T16:32:08;23.35;;;20.98;;
23898;SDS011;20544;50.018;20.010;2023-10-19T16:35:27;30.00;;;20.88;;
23898;SDS011;20544;50.018;20.010;2023-10-19T16:39:01;25.83;;;21.77;;
23898;SDS011;20544;50.018;20.010;2023-10-19T16:42:25;23.90;;;21.40;;
23898;SDS011;20544;50.018;20.010;2023-10-19T16:45:43;26.98;;;22.60;;
23898;SDS011;20544;50.018;20.010;2023-10-19T16:49:07;25.35;;;22.38;;
23898;SDS011;20544;50.018;20.010;2023-10-19T16:52:25;26.37;;;21.73;;
23898;SDS011;20544;50.018;20.010;2023-10-19T16:55:48;24.43;;;21.60;;
23898;SDS011;20544;50.018;20.010;2023-10-19T16:59:08;26.45;;;21.85;;
23898;SDS011;20544;50.018;20.010;2023-10-19T17:02:32;28.13;;;21.58;;
23898;SDS011;20544;50.018;20.010;2023-10-19T17:05:50;31.83;;;22.75;;
23898;SDS011;20544;50.018;20.010;2023-10-19T17:09:11;26.65;;;22.35;;
23898;SDS011;20544;50.018;20.010;2023-10-19T17:12:32;28.08;;;21.63;;
23898;SDS011;20544;50.018;20.010;2023-10-19T17:15:55;30.98;;;21.90;;
23898;SDS011;20544;50.018;20.010;2023-10-19T17:19:16;31.23;;;23.73;;
23898;SDS011;20544;50.018;20.010;2023-10-19T17:22:33;25.40;;;22.80;;
23898;SDS011;20544;50.018;20.010;2023-10-19T17:26:05;24.65;;;21.98;;
23898;SDS011;20544;50.018;20.010;2023-10-19T17:29:34;27.35;;;22.53;;
23898;SDS011;20544;50.018;20.010;2023-10-19T17:32:55;33.10;;;22.45;;
23898;SDS011;20544;50.018;20.010;2023-10-19T17:36:14;26.78;;;21.38;;
23898;SDS011;20544;50.018;20.010;2023-10-19T17:39:46;29.60;;;21.93;;
23898;SDS011;20544;50.018;20.010;2023-10-19T17:43:08;28.53;;;22.48;;
23898;SDS011;20544;50.018;20.010;2023-10-19T17:50:44;25.80;;;19.68;;
23898;SDS011;20544;50.018;20.010;2023-10-19T17:54:15;23.10;;;20.38;;
23898;SDS011;20544;50.018;20.010;2023-10-19T17:58:27;26.25;;;20.73;;
23898;SDS011;20544;50.018;20.010;2023-10-19T18:06:00;24.08;;;19.28;;
23898;SDS011;20544;50.018;20.010;2023-10-19T18:09:24;22.13;;;19.85;;
23898;SDS011;20544;50.018;20.010;2023-10-19T18:12:44;22.80;;;19.30;;
23898;SDS011;20544;50.018;20.010;2023-10-19T18:16:09;22.45;;;19.08;;
23898;SDS011;20544;50.018;20.010;2023-10-19T18:19:44;26.40;;;18.08;;
23898;SDS011;20544;50.018;20.010;2023-10-19T18:23:05;34.20;;;23.53;;
23898;SDS011;20544;50.018;20.010;2023-10-19T18:26:28;22.95;;;20.40;;
23898;SDS011;20544;50.018;20.010;2023-10-19T18:29:55;25.25;;;19.30;;
23898;SDS011;20544;50.018;20.010;2023-10-19T18:33:12;21.15;;;18.93;;
23898;SDS011;20544;50.018;20.010;2023-10-19T18:36:37;33.28;;;21.15;;
23898;SDS011;20544;50.018;20.010;2023-10-19T18:40:04;25.25;;;20.40;;
23898;SDS011;20544;50.018;20.010;2023-10-19T18:43:41;22.13;;;19.05;;
23898;SDS011;20544;50.018;20.010;2023-10-19T18:47:15;22.43;;;19.15;;
23898;SDS011;20544;50.018;20.010;2023-10-19T18:50:36;23.80;;;18.93;;
23898;SDS011;20544;50.018;20.010;2023-10-19T18:54:03;28.15;;;20.50;;
23898;SDS011;20544;50.018;20.010;2023-10-19T18:57:35;23.88;;;20.18;;
23898;SDS011;20544;50.018;20.010;2023-10-19T19:00:54;20.93;;;18.73;;
23898;SDS011;20544;50.018;20.010;2023-10-19T19:04:16;23.43;;;20.80;;
23898;SDS011;20544;50.018;20.010;2023-10-19T19:07:54;25.58;;;18.83;;
23898;SDS011;20544;50.018;20.010;2023-10-19T19:14:46;29.35;;;18.90;;
23898;SDS011;20544;50.018;20.010;2023-10-19T19:18:08;23.43;;;20.40;;
23898;SDS011;20544;50.018;20.010;2023-10-19T19:21:36;22.13;;;18.30;;
23898;SDS011;20544;50.018;20.010;2023-10-19T19:25:33;25.68;;;19.25;;
23898;SDS011;20544;50.018;20.010;2023-10-19T19:29:06;21.05;;;18.00;;
23898;SDS011;20544;50.018;20.010;2023-10-19T19:32:30;23.25;;;17.30;;
23898;SDS011;20544;50.018;20.010;2023-10-19T19:35:59;21.20;;;17.70;;
23898;SDS011;20544;50.018;20.010;2023-10-19T19:39:23;21.50;;;18.73;;
23898;SDS011;20544;50.018;20.010;2023-10-19T19:42:54;19.80;;;17.70;;
23898;SDS011;20544;50.018;20.010;2023-10-19T19:46:37;23.90;;;17.33;;
23898;SDS011;20544;50.018;20.010;2023-10-19T19:49:56;20.98;;;17.18;;
23898;SDS011;20544;50.018;20.010;2023-10-19T19:53:15;18.38;;;16.58;;
23898;SDS011;20544;50.018;20.010;2023-10-19T19:56:32;23.98;;;17.58;;
23898;SDS011;20544;50.018;20.010;2023-10-19T19:59:59;19.35;;;17.28;;